sensor_id;sensor_type;location;lat;lon;timestamp;P1;durP1;ratioP1;P2;durP2;ratioP2
44254;SDS011;29933;47.226;15.734;2022-11-20T00:01:15;32.50;;;15.93;;
44254;SDS011;29933;47.226;15.734;2022-11-20T00:03:44;33.13;;;13.65;;
44254;SDS011;29933;47.226;15.734;2022-11-20T00:06:12;40.40;;;17.17;;
44254;SDS011;29933;47.226;15.734;2022-11-20T00:08:41;38.42;;;16.80;;
44254;SDS011;29933;47.226;15.734;2022-11-20T00:11:08;39.58;;;16.25;;
44254;SDS011;29933;47.226;15.734;2022-11-20T00:13:40;43.05;;;17.42;;
44254;SDS011;29933;47.226;15.734;2022-11-20T00:16:07;30.17;;;12.98;;
44254;SDS011;29933;47.226;15.734;2022-11-20T00:18:35;30.40;;;14.30;;
44254;SDS011;29933;47.226;15.734;2022-11-20T00:21:02;38.25;;;15.80;;
44254;SDS011;29933;47.226;15.734;2022-11-20T00:23:29;40.95;;;16.83;;
44254;SDS011;29933;47.226;15.734;2022-11-20T00:25:56;39.85;;;16.58;;
44254;SDS011;29933;47.226;15.734;2022-11-20T00:28:25;42.65;;;17.73;;
44254;SDS011;29933;47.226;15.734;2022-11-20T00:30:51;32.92;;;15.98;;
44254;SDS011;29933;47.226;15.734;2022-11-20T00:33:17;37.40;;;15.45;;
44254;SDS011;29933;47.226;15.734;2022-11-20T00:35:43;36.38;;;16.00;;
44254;SDS011;29933;47.226;15.734;2022-11-20T00:38:08;30.60;;;15.07;;
44254;SDS011;29933;47.226;15.734;2022-11-20T00:40:34;30.88;;;13.98;;
44254;SDS011;29933;47.226;15.734;2022-11-20T00:43:00;30.67;;;14.10;;
44254;SDS011;29933;47.226;15.734;2022-11-20T00:45:26;30.15;;;14.73;;
44254;SDS011;29933;47.226;15.734;2022-11-20T00:47:52;37.20;;;14.75;;
44254;SDS011;29933;47.226;15.734;2022-11-20T00:50:17;33.20;;;14.02;;
44254;SDS011;29933;47.226;15.734;2022-11-20T00:52:43;32.00;;;15.18;;
44254;SDS011;29933;47.226;15.734;2022-11-20T00:55:09;30.98;;;15.38;;
44254;SDS011;29933;47.226;15.734;2022-11-20T00:57:35;40.40;;;14.27;;
44254;SDS011;29933;47.226;15.734;2022-11-20T01:00:01;28.83;;;14.50;;
44254;SDS011;29933;47.226;15.734;2022-11-20T01:02:27;35.22;;;15.27;;
44254;SDS011;29933;47.226;15.734;2022-11-20T01:04:53;27.85;;;13.10;;
44254;SDS011;29933;47.226;15.734;2022-11-20T01:07:19;28.60;;;15.02;;
44254;SDS011;29933;47.226;15.734;2022-11-20T01:09:44;30.42;;;14.25;;
44254;SDS011;29933;47.226;15.734;2022-11-20T01:12:10;30.25;;;14.40;;
44254;SDS011;29933;47.226;15.734;2022-11-20T01:14:36;38.58;;;16.15;;
44254;SDS011;29933;47.226;15.734;2022-11-20T01:17:02;30.60;;;14.68;;
44254;SDS011;29933;47.226;15.734;2022-11-20T01:19:28;34.80;;;16.02;;
44254;SDS011;29933;47.226;15.734;2022-11-20T01:21:54;33.67;;;14.82;;
44254;SDS011;29933;47.226;15.734;2022-11-20T01:24:20;30.90;;;14.68;;
44254;SDS011;29933;47.226;15.734;2022-11-20T01:26:48;34.33;;;14.30;;
44254;SDS011;29933;47.226;15.734;2022-11-20T01:29:19;37.30;;;15.65;;
44254;SDS011;29933;47.226;15.734;2022-11-20T01:31:49;26.02;;;15.00;;
44254;SDS011;29933;47.226;15.734;2022-11-20T01:34:17;33.00;;;14.52;;
44254;SDS011;29933;47.226;15.734;2022-11-20T01:36:45;40.55;;;17.50;;
44254;SDS011;29933;47.226;15.734;2022-11-20T01:41:47;31.75;;;16.17;;
44254;SDS011;29933;47.226;15.734;2022-11-20T01:44:47;31.00;;;14.82;;
44254;SDS011;29933;47.226;15.734;2022-11-20T01:47:38;31.25;;;14.05;;
44254;SDS011;29933;47.226;15.734;2022-11-20T01:50:22;42.67;;;19.95;;
44254;SDS011;29933;47.226;15.734;2022-11-20T01:52:58;33.22;;;15.57;;
44254;SDS011;29933;47.226;15.734;2022-11-20T01:55:39;29.13;;;14.93;;
44254;SDS011;29933;47.226;15.734;2022-11-20T01:58:12;28.40;;;13.80;;
44254;SDS011;29933;47.226;15.734;2022-11-20T02:00:38;33.28;;;14.43;;
44254;SDS011;29933;47.226;15.734;2022-11-20T02:03:07;30.52;;;14.02;;
44254;SDS011;29933;47.226;15.734;2022-11-20T02:05:40;31.05;;;13.45;;
44254;SDS011;29933;47.226;15.734;2022-11-20T02:08:29;28.10;;;13.98;;
44254;SDS011;29933;47.226;15.734;2022-11-20T02:10:55;26.08;;;13.75;;
44254;SDS011;29933;47.226;15.734;2022-11-20T02:13:21;30.50;;;14.23;;
44254;SDS011;29933;47.226;15.734;2022-11-20T02:16:08;25.60;;;13.43;;
44254;SDS011;29933;47.226;15.734;2022-11-20T02:18:42;28.85;;;12.20;;
44254;SDS011;29933;47.226;15.734;2022-11-20T02:29:17;30.77;;;11.70;;
44254;SDS011;29933;47.226;15.734;2022-11-20T02:32:25;22.20;;;10.45;;
44254;SDS011;29933;47.226;15.734;2022-11-20T02:34:53;20.25;;;9.82;;
44254;SDS011;29933;47.226;15.734;2022-11-20T02:37:20;24.75;;;13.38;;
44254;SDS011;29933;47.226;15.734;2022-11-20T02:39:49;25.63;;;11.43;;
44254;SDS011;29933;47.226;15.734;2022-11-20T02:42:17;15.13;;;8.30;;
44254;SDS011;29933;47.226;15.734;2022-11-20T02:44:43;18.63;;;9.77;;
44254;SDS011;29933;47.226;15.734;2022-11-20T02:47:09;13.77;;;8.35;;
44254;SDS011;29933;47.226;15.734;2022-11-20T02:49:35;15.57;;;6.78;;
44254;SDS011;29933;47.226;15.734;2022-11-20T02:52:01;10.80;;;7.03;;
44254;SDS011;29933;47.226;15.734;2022-11-20T02:54:27;15.23;;;8.35;;
44254;SDS011;29933;47.226;15.734;2022-11-20T02:56:53;19.27;;;8.60;;
44254;SDS011;29933;47.226;15.734;2022-11-20T02:59:18;16.38;;;8.48;;
44254;SDS011;29933;47.226;15.734;2022-11-20T03:01:44;21.33;;;9.65;;
44254;SDS011;29933;47.226;15.734;2022-11-20T03:04:10;14.18;;;9.07;;
44254;SDS011;29933;47.226;15.734;2022-11-20T03:06:36;16.63;;;8.77;;
44254;SDS011;29933;47.226;15.734;2022-11-20T03:09:02;12.32;;;7.78;;
44254;SDS011;29933;47.226;15.734;2022-11-20T03:11:28;17.27;;;8.43;;
44254;SDS011;29933;47.226;15.734;2022-11-20T03:13:54;13.15;;;7.85;;
44254;SDS011;29933;47.226;15.734;2022-11-20T03:16:21;13.50;;;7.70;;
44254;SDS011;29933;47.226;15.734;2022-11-20T03:18:48;12.32;;;6.72;;
44254;SDS011;29933;47.226;15.734;2022-11-20T03:21:16;7.40;;;5.20;;
44254;SDS011;29933;47.226;15.734;2022-11-20T03:23:42;10.18;;;6.18;;
44254;SDS011;29933;47.226;15.734;2022-11-20T03:28:35;10.60;;;7.80;;
44254;SDS011;29933;47.226;15.734;2022-11-20T03:31:08;10.98;;;6.35;;
44254;SDS011;29933;47.226;15.734;2022-11-20T03:33:37;11.57;;;7.55;;
44254;SDS011;29933;47.226;15.734;2022-11-20T03:36:06;12.40;;;7.15;;
44254;SDS011;29933;47.226;15.734;2022-11-20T03:38:34;14.00;;;6.75;;
44254;SDS011;29933;47.226;15.734;2022-11-20T03:41:02;17.60;;;9.13;;
44254;SDS011;29933;47.226;15.734;2022-11-20T03:43:33;13.30;;;8.05;;
44254;SDS011;29933;47.226;15.734;2022-11-20T03:46:00;11.63;;;7.70;;
44254;SDS011;29933;47.226;15.734;2022-11-20T03:48:26;13.38;;;7.82;;
44254;SDS011;29933;47.226;15.734;2022-11-20T03:50:52;14.35;;;7.85;;
44254;SDS011;29933;47.226;15.734;2022-11-20T03:53:31;11.80;;;6.40;;
44254;SDS011;29933;47.226;15.734;2022-11-20T03:55:57;15.73;;;8.10;;
44254;SDS011;29933;47.226;15.734;2022-11-20T03:58:22;11.27;;;7.00;;
44254;SDS011;29933;47.226;15.734;2022-11-20T04:00:48;11.35;;;6.95;;
44254;SDS011;29933;47.226;15.734;2022-11-20T04:03:14;14.35;;;6.38;;
44254;SDS011;29933;47.226;15.734;2022-11-20T04:05:40;9.98;;;5.60;;
44254;SDS011;29933;47.226;15.734;2022-11-20T04:08:06;13.57;;;6.07;;
44254;SDS011;29933;47.226;15.734;2022-11-20T04:10:32;8.95;;;5.60;;
44254;SDS011;29933;47.226;15.734;2022-11-20T04:12:58;11.23;;;5.88;;
44254;SDS011;29933;47.226;15.734;2022-11-20T04:15:23;6.05;;;3.97;;
44254;SDS011;29933;47.226;15.734;2022-11-20T04:17:49;9.63;;;4.90;;
44254;SDS011;29933;47.226;15.734;2022-11-20T04:20:15;10.05;;;5.13;;
44254;SDS011;29933;47.226;15.734;2022-11-20T04:22:41;8.13;;;5.38;;
44254;SDS011;29933;47.226;15.734;2022-11-20T04:25:07;7.57;;;4.88;;
44254;SDS011;29933;47.226;15.734;2022-11-20T04:27:33;8.25;;;4.60;;
44254;SDS011;29933;47.226;15.734;2022-11-20T04:29:59;10.05;;;5.03;;
44254;SDS011;29933;47.226;15.734;2022-11-20T04:32:25;6.93;;;4.65;;
44254;SDS011;29933;47.226;15.734;2022-11-20T04:34:51;7.35;;;4.13;;
44254;SDS011;29933;47.226;15.734;2022-11-20T04:37:16;7.80;;;4.70;;
44254;SDS011;29933;47.226;15.734;2022-11-20T04:39:44;10.45;;;5.40;;
44254;SDS011;29933;47.226;15.734;2022-11-20T04:42:10;6.80;;;4.43;;
44254;SDS011;29933;47.226;15.734;2022-11-20T04:44:54;9.10;;;4.10;;
44254;SDS011;29933;47.226;15.734;2022-11-20T04:47:20;7.45;;;4.10;;
44254;SDS011;29933;47.226;15.734;2022-11-20T04:49:46;6.05;;;4.38;;
44254;SDS011;29933;47.226;15.734;2022-11-20T04:52:13;9.25;;;5.65;;
44254;SDS011;29933;47.226;15.734;2022-11-20T04:54:39;5.30;;;3.60;;
44254;SDS011;29933;47.226;15.734;2022-11-20T04:57:05;5.97;;;4.10;;
44254;SDS011;29933;47.226;15.734;2022-11-20T04:59:31;5.63;;;3.53;;
44254;SDS011;29933;47.226;15.734;2022-11-20T05:01:57;8.75;;;3.70;;
44254;SDS011;29933;47.226;15.734;2022-11-20T05:04:23;4.47;;;3.55;;
44254;SDS011;29933;47.226;15.734;2022-11-20T05:06:49;5.45;;;3.28;;
44254;SDS011;29933;47.226;15.734;2022-11-20T05:09:15;6.03;;;3.28;;
44254;SDS011;29933;47.226;15.734;2022-11-20T05:11:41;3.92;;;2.72;;
44254;SDS011;29933;47.226;15.734;2022-11-20T05:14:07;5.25;;;3.10;;
44254;SDS011;29933;47.226;15.734;2022-11-20T05:16:33;7.43;;;4.13;;
44254;SDS011;29933;47.226;15.734;2022-11-20T05:19:01;7.68;;;3.47;;
44254;SDS011;29933;47.226;15.734;2022-11-20T05:21:29;4.43;;;3.50;;
44254;SDS011;29933;47.226;15.734;2022-11-20T05:23:57;6.05;;;3.33;;
44254;SDS011;29933;47.226;15.734;2022-11-20T05:26:23;7.10;;;4.47;;
44254;SDS011;29933;47.226;15.734;2022-11-20T05:28:49;5.47;;;3.55;;
44254;SDS011;29933;47.226;15.734;2022-11-20T05:31:16;4.05;;;2.85;;
44254;SDS011;29933;47.226;15.734;2022-11-20T05:33:45;4.72;;;3.42;;
44254;SDS011;29933;47.226;15.734;2022-11-20T05:36:12;5.28;;;2.92;;
44254;SDS011;29933;47.226;15.734;2022-11-20T05:38:39;5.30;;;2.65;;
44254;SDS011;29933;47.226;15.734;2022-11-20T05:41:10;3.90;;;2.63;;
44254;SDS011;29933;47.226;15.734;2022-11-20T05:43:43;5.03;;;2.95;;
44254;SDS011;29933;47.226;15.734;2022-11-20T05:46:11;5.30;;;3.45;;
44254;SDS011;29933;47.226;15.734;2022-11-20T05:48:40;6.20;;;3.63;;
44254;SDS011;29933;47.226;15.734;2022-11-20T05:51:08;7.35;;;4.72;;
44254;SDS011;29933;47.226;15.734;2022-11-20T05:53:37;6.38;;;4.20;;
44254;SDS011;29933;47.226;15.734;2022-11-20T05:56:04;7.18;;;3.80;;
44254;SDS011;29933;47.226;15.734;2022-11-20T05:58:34;6.75;;;4.28;;
44254;SDS011;29933;47.226;15.734;2022-11-20T06:01:13;9.07;;;4.50;;
44254;SDS011;29933;47.226;15.734;2022-11-20T06:03:42;6.50;;;4.95;;
44254;SDS011;29933;47.226;15.734;2022-11-20T06:06:13;7.88;;;3.17;;
44254;SDS011;29933;47.226;15.734;2022-11-20T06:08:40;5.70;;;4.03;;
44254;SDS011;29933;47.226;15.734;2022-11-20T06:11:07;5.35;;;3.45;;
44254;SDS011;29933;47.226;15.734;2022-11-20T06:13:35;8.93;;;3.85;;
44254;SDS011;29933;47.226;15.734;2022-11-20T06:16:01;8.18;;;4.05;;
44254;SDS011;29933;47.226;15.734;2022-11-20T06:18:27;5.78;;;3.22;;
44254;SDS011;29933;47.226;15.734;2022-11-20T06:21:01;4.10;;;3.03;;
44254;SDS011;29933;47.226;15.734;2022-11-20T06:23:30;3.90;;;2.60;;
44254;SDS011;29933;47.226;15.734;2022-11-20T06:25:58;4.47;;;3.03;;
44254;SDS011;29933;47.226;15.734;2022-11-20T06:28:33;5.50;;;3.45;;
44254;SDS011;29933;47.226;15.734;2022-11-20T06:30:59;6.10;;;3.63;;
44254;SDS011;29933;47.226;15.734;2022-11-20T06:33:25;7.28;;;4.80;;
44254;SDS011;29933;47.226;15.734;2022-11-20T06:35:51;5.38;;;3.90;;
44254;SDS011;29933;47.226;15.734;2022-11-20T06:38:17;5.22;;;3.88;;
44254;SDS011;29933;47.226;15.734;2022-11-20T06:40:43;7.95;;;4.03;;
44254;SDS011;29933;47.226;15.734;2022-11-20T06:43:09;3.90;;;3.60;;
44254;SDS011;29933;47.226;15.734;2022-11-20T06:45:35;6.40;;;3.38;;
44254;SDS011;29933;47.226;15.734;2022-11-20T06:48:02;6.18;;;3.95;;
44254;SDS011;29933;47.226;15.734;2022-11-20T06:50:28;5.97;;;4.10;;
44254;SDS011;29933;47.226;15.734;2022-11-20T06:52:54;7.00;;;3.65;;
44254;SDS011;29933;47.226;15.734;2022-11-20T06:55:20;6.38;;;3.20;;
44254;SDS011;29933;47.226;15.734;2022-11-20T06:57:46;7.65;;;5.35;;
44254;SDS011;29933;47.226;15.734;2022-11-20T07:00:12;8.88;;;5.63;;
44254;SDS011;29933;47.226;15.734;2022-11-20T07:02:39;8.57;;;5.45;;
44254;SDS011;29933;47.226;15.734;2022-11-20T07:05:04;9.60;;;5.45;;
44254;SDS011;29933;47.226;15.734;2022-11-20T07:07:31;7.97;;;5.07;;
44254;SDS011;29933;47.226;15.734;2022-11-20T07:09:56;6.97;;;5.00;;
44254;SDS011;29933;47.226;15.734;2022-11-20T07:12:22;9.80;;;6.40;;
44254;SDS011;29933;47.226;15.734;2022-11-20T07:14:48;5.75;;;4.07;;
44254;SDS011;29933;47.226;15.734;2022-11-20T07:17:14;9.27;;;5.50;;
44254;SDS011;29933;47.226;15.734;2022-11-20T07:19:40;6.97;;;6.13;;
44254;SDS011;29933;47.226;15.734;2022-11-20T07:22:07;11.25;;;5.68;;
44254;SDS011;29933;47.226;15.734;2022-11-20T07:24:34;6.50;;;4.30;;
44254;SDS011;29933;47.226;15.734;2022-11-20T07:26:59;11.00;;;5.28;;
44254;SDS011;29933;47.226;15.734;2022-11-20T07:29:26;7.80;;;5.50;;
44254;SDS011;29933;47.226;15.734;2022-11-20T07:31:51;5.93;;;4.35;;
44254;SDS011;29933;47.226;15.734;2022-11-20T07:34:17;8.60;;;5.00;;
44254;SDS011;29933;47.226;15.734;2022-11-20T07:36:43;5.72;;;3.58;;
44254;SDS011;29933;47.226;15.734;2022-11-20T07:39:09;5.68;;;4.43;;
44254;SDS011;29933;47.226;15.734;2022-11-20T07:41:34;8.15;;;5.05;;
44254;SDS011;29933;47.226;15.734;2022-11-20T07:44:00;5.55;;;4.15;;
44254;SDS011;29933;47.226;15.734;2022-11-20T07:46:26;6.72;;;4.05;;
44254;SDS011;29933;47.226;15.734;2022-11-20T07:48:52;5.60;;;4.60;;
44254;SDS011;29933;47.226;15.734;2022-11-20T07:51:18;5.32;;;4.68;;
44254;SDS011;29933;47.226;15.734;2022-11-20T07:53:44;6.55;;;4.43;;
44254;SDS011;29933;47.226;15.734;2022-11-20T07:56:09;6.97;;;4.97;;
44254;SDS011;29933;47.226;15.734;2022-11-20T07:58:36;5.93;;;5.10;;
44254;SDS011;29933;47.226;15.734;2022-11-20T08:01:02;5.90;;;3.58;;
44254;SDS011;29933;47.226;15.734;2022-11-20T08:03:30;4.55;;;3.42;;
44254;SDS011;29933;47.226;15.734;2022-11-20T08:05:58;5.20;;;3.42;;
44254;SDS011;29933;47.226;15.734;2022-11-20T08:10:51;5.78;;;3.67;;
44254;SDS011;29933;47.226;15.734;2022-11-20T08:13:17;5.78;;;4.10;;
44254;SDS011;29933;47.226;15.734;2022-11-20T08:16:02;5.82;;;3.63;;
44254;SDS011;29933;47.226;15.734;2022-11-20T08:18:28;7.03;;;4.07;;
44254;SDS011;29933;47.226;15.734;2022-11-20T08:20:54;5.35;;;3.50;;
44254;SDS011;29933;47.226;15.734;2022-11-20T08:23:20;7.22;;;5.20;;
44254;SDS011;29933;47.226;15.734;2022-11-20T08:25:49;7.82;;;5.13;;
44254;SDS011;29933;47.226;15.734;2022-11-20T08:28:15;6.30;;;4.30;;
44254;SDS011;29933;47.226;15.734;2022-11-20T08:30:41;7.97;;;4.70;;
44254;SDS011;29933;47.226;15.734;2022-11-20T08:33:08;7.97;;;5.72;;
44254;SDS011;29933;47.226;15.734;2022-11-20T08:35:37;8.52;;;6.00;;
44254;SDS011;29933;47.226;15.734;2022-11-20T08:38:04;7.75;;;5.03;;
44254;SDS011;29933;47.226;15.734;2022-11-20T08:40:31;11.23;;;5.80;;
44254;SDS011;29933;47.226;15.734;2022-11-20T08:42:57;8.68;;;5.85;;
44254;SDS011;29933;47.226;15.734;2022-11-20T08:45:23;6.57;;;5.13;;
44254;SDS011;29933;47.226;15.734;2022-11-20T08:47:49;10.40;;;4.90;;
44254;SDS011;29933;47.226;15.734;2022-11-20T08:50:15;8.27;;;5.28;;
44254;SDS011;29933;47.226;15.734;2022-11-20T08:52:42;8.43;;;5.18;;
44254;SDS011;29933;47.226;15.734;2022-11-20T08:55:08;6.78;;;5.45;;
44254;SDS011;29933;47.226;15.734;2022-11-20T08:57:35;9.52;;;6.13;;
44254;SDS011;29933;47.226;15.734;2022-11-20T09:00:02;7.72;;;4.75;;
44254;SDS011;29933;47.226;15.734;2022-11-20T09:02:30;10.23;;;6.13;;
44254;SDS011;29933;47.226;15.734;2022-11-20T09:04:57;7.32;;;5.50;;
44254;SDS011;29933;47.226;15.734;2022-11-20T09:07:23;6.38;;;5.38;;
44254;SDS011;29933;47.226;15.734;2022-11-20T09:09:49;7.32;;;5.20;;
44254;SDS011;29933;47.226;15.734;2022-11-20T09:12:15;6.35;;;4.18;;
44254;SDS011;29933;47.226;15.734;2022-11-20T09:14:41;5.00;;;4.10;;
44254;SDS011;29933;47.226;15.734;2022-11-20T09:17:07;6.05;;;4.25;;
44254;SDS011;29933;47.226;15.734;2022-11-20T09:19:34;7.63;;;5.07;;
44254;SDS011;29933;47.226;15.734;2022-11-20T09:22:00;7.07;;;4.60;;
44254;SDS011;29933;47.226;15.734;2022-11-20T09:24:26;5.95;;;4.75;;
44254;SDS011;29933;47.226;15.734;2022-11-20T09:26:52;7.13;;;4.25;;
44254;SDS011;29933;47.226;15.734;2022-11-20T09:29:18;6.47;;;4.60;;
44254;SDS011;29933;47.226;15.734;2022-11-20T09:31:44;5.95;;;4.65;;
44254;SDS011;29933;47.226;15.734;2022-11-20T09:34:10;4.47;;;3.58;;
44254;SDS011;29933;47.226;15.734;2022-11-20T09:36:36;6.30;;;4.43;;
44254;SDS011;29933;47.226;15.734;2022-11-20T09:39:02;7.32;;;4.43;;
44254;SDS011;29933;47.226;15.734;2022-11-20T09:44:47;4.70;;;3.65;;
44254;SDS011;29933;47.226;15.734;2022-11-20T09:47:26;4.30;;;3.55;;
44254;SDS011;29933;47.226;15.734;2022-11-20T09:55:54;4.07;;;3.40;;
44254;SDS011;29933;47.226;15.734;2022-11-20T09:58:24;3.72;;;3.35;;
44254;SDS011;29933;47.226;15.734;2022-11-20T10:01:07;4.43;;;3.40;;
44254;SDS011;29933;47.226;15.734;2022-11-20T10:06:34;5.97;;;3.13;;
44254;SDS011;29933;47.226;15.734;2022-11-20T10:14:30;3.30;;;2.97;;
44254;SDS011;29933;47.226;15.734;2022-11-20T10:17:12;3.13;;;2.83;;
44254;SDS011;29933;47.226;15.734;2022-11-20T10:26:21;2.88;;;2.35;;
44254;SDS011;29933;47.226;15.734;2022-11-20T10:28:58;2.35;;;2.13;;
44254;SDS011;29933;47.226;15.734;2022-11-20T10:31:33;3.97;;;2.22;;
44254;SDS011;29933;47.226;15.734;2022-11-20T10:34:17;3.50;;;1.92;;
44254;SDS011;29933;47.226;15.734;2022-11-20T10:39:31;2.33;;;2.17;;
44254;SDS011;29933;47.226;15.734;2022-11-20T10:42:37;5.65;;;3.08;;
44254;SDS011;29933;47.226;15.734;2022-11-20T10:47:56;4.55;;;2.42;;
44254;SDS011;29933;47.226;15.734;2022-11-20T10:50:57;2.05;;;1.85;;
44254;SDS011;29933;47.226;15.734;2022-11-20T10:57:07;2.28;;;0.63;;
44254;SDS011;29933;47.226;15.734;2022-11-20T11:00:06;1.80;;;1.52;;
44254;SDS011;29933;47.226;15.734;2022-11-20T11:02:39;1.02;;;0.88;;
44254;SDS011;29933;47.226;15.734;2022-11-20T11:08:02;1.60;;;1.00;;
44254;SDS011;29933;47.226;15.734;2022-11-20T11:10:37;1.33;;;0.90;;
44254;SDS011;29933;47.226;15.734;2022-11-20T11:13:30;1.00;;;0.93;;
44254;SDS011;29933;47.226;15.734;2022-11-20T11:15:56;1.67;;;1.13;;
44254;SDS011;29933;47.226;15.734;2022-11-20T11:18:30;2.28;;;1.60;;
44254;SDS011;29933;47.226;15.734;2022-11-20T11:21:02;1.40;;;1.13;;
44254;SDS011;29933;47.226;15.734;2022-11-20T11:23:36;1.27;;;0.80;;
44254;SDS011;29933;47.226;15.734;2022-11-20T11:26:06;0.82;;;0.82;;
44254;SDS011;29933;47.226;15.734;2022-11-20T11:28:56;1.05;;;0.70;;
44254;SDS011;29933;47.226;15.734;2022-11-20T11:31:33;0.70;;;0.60;;
44254;SDS011;29933;47.226;15.734;2022-11-20T11:34:18;1.15;;;1.02;;
44254;SDS011;29933;47.226;15.734;2022-11-20T11:36:52;1.17;;;0.93;;
44254;SDS011;29933;47.226;15.734;2022-11-20T11:39:23;2.28;;;2.08;;
44254;SDS011;29933;47.226;15.734;2022-11-20T11:41:50;1.65;;;1.05;;
44254;SDS011;29933;47.226;15.734;2022-11-20T11:44:20;1.20;;;1.10;;
44254;SDS011;29933;47.226;15.734;2022-11-20T11:47:57;1.67;;;0.70;;
44254;SDS011;29933;47.226;15.734;2022-11-20T12:07:15;0.98;;;0.82;;
44254;SDS011;29933;47.226;15.734;2022-11-20T12:09:54;1.00;;;0.88;;
44254;SDS011;29933;47.226;15.734;2022-11-20T12:12:24;1.05;;;0.68;;
44254;SDS011;29933;47.226;15.734;2022-11-20T12:15:09;3.08;;;0.57;;
44254;SDS011;29933;47.226;15.734;2022-11-20T12:17:41;0.52;;;0.50;;
44254;SDS011;29933;47.226;15.734;2022-11-20T12:20:13;1.15;;;0.98;;
44254;SDS011;29933;47.226;15.734;2022-11-20T12:22:45;0.90;;;0.63;;
44254;SDS011;29933;47.226;15.734;2022-11-20T12:25:26;0.80;;;0.73;;
44254;SDS011;29933;47.226;15.734;2022-11-20T12:39:18;0.95;;;0.70;;
44254;SDS011;29933;47.226;15.734;2022-11-20T13:02:33;1.40;;;1.08;;
44254;SDS011;29933;47.226;15.734;2022-11-20T13:05:21;0.65;;;0.60;;
44254;SDS011;29933;47.226;15.734;2022-11-20T13:08:30;1.92;;;0.47;;
44254;SDS011;29933;47.226;15.734;2022-11-20T13:19:52;0.70;;;0.63;;
44254;SDS011;29933;47.226;15.734;2022-11-20T13:22:25;0.90;;;0.75;;
44254;SDS011;29933;47.226;15.734;2022-11-20T13:25:21;2.83;;;0.50;;
44254;SDS011;29933;47.226;15.734;2022-11-20T13:28:03;0.65;;;0.60;;
44254;SDS011;29933;47.226;15.734;2022-11-20T13:30:54;0.60;;;0.60;;
44254;SDS011;29933;47.226;15.734;2022-11-20T13:33:23;0.30;;;0.30;;
44254;SDS011;29933;47.226;15.734;2022-11-20T13:36:05;0.63;;;0.63;;
44254;SDS011;29933;47.226;15.734;2022-11-20T13:38:47;0.98;;;0.70;;
44254;SDS011;29933;47.226;15.734;2022-11-20T13:41:32;0.40;;;0.40;;
44254;SDS011;29933;47.226;15.734;2022-11-20T13:46:35;0.43;;;0.30;;
44254;SDS011;29933;47.226;15.734;2022-11-20T13:54:55;0.50;;;0.50;;
44254;SDS011;29933;47.226;15.734;2022-11-20T13:58:20;0.50;;;0.35;;
44254;SDS011;29933;47.226;15.734;2022-11-20T14:01:23;0.35;;;0.30;;
44254;SDS011;29933;47.226;15.734;2022-11-20T14:03:51;0.57;;;0.50;;
44254;SDS011;29933;47.226;15.734;2022-11-20T14:08:47;0.40;;;0.40;;
44254;SDS011;29933;47.226;15.734;2022-11-20T14:11:15;1.02;;;0.63;;
44254;SDS011;29933;47.226;15.734;2022-11-20T14:16:41;0.60;;;0.40;;
44254;SDS011;29933;47.226;15.734;2022-11-20T14:22:07;1.80;;;1.40;;
44254;SDS011;29933;47.226;15.734;2022-11-20T14:24:47;1.52;;;1.17;;
44254;SDS011;29933;47.226;15.734;2022-11-20T14:27:25;1.42;;;1.10;;
44254;SDS011;29933;47.226;15.734;2022-11-20T14:29:51;2.25;;;1.42;;
44254;SDS011;29933;47.226;15.734;2022-11-20T14:32:18;1.20;;;0.82;;
44254;SDS011;29933;47.226;15.734;2022-11-20T14:34:49;2.20;;;1.08;;
44254;SDS011;29933;47.226;15.734;2022-11-20T14:37:23;0.98;;;0.70;;
44254;SDS011;29933;47.226;15.734;2022-11-20T14:39:53;0.65;;;0.50;;
44254;SDS011;29933;47.226;15.734;2022-11-20T14:42:24;1.17;;;0.47;;
44254;SDS011;29933;47.226;15.734;2022-11-20T14:44:54;0.50;;;0.50;;
44254;SDS011;29933;47.226;15.734;2022-11-20T14:47:28;0.40;;;0.40;;
44254;SDS011;29933;47.226;15.734;2022-11-20T14:49:56;0.47;;;0.47;;
44254;SDS011;29933;47.226;15.734;2022-11-20T14:52:24;2.22;;;1.00;;
44254;SDS011;29933;47.226;15.734;2022-11-20T14:54:53;1.38;;;1.27;;
44254;SDS011;29933;47.226;15.734;2022-11-20T14:57:27;0.80;;;0.50;;
44254;SDS011;29933;47.226;15.734;2022-11-20T15:00:06;2.83;;;0.98;;
44254;SDS011;29933;47.226;15.734;2022-11-20T15:02:33;3.08;;;0.50;;
44254;SDS011;29933;47.226;15.734;2022-11-20T15:04:59;0.68;;;0.43;;
44254;SDS011;29933;47.226;15.734;2022-11-20T15:07:47;0.70;;;0.40;;
44254;SDS011;29933;47.226;15.734;2022-11-20T15:10:32;0.75;;;0.50;;
44254;SDS011;29933;47.226;15.734;2022-11-20T15:15:31;0.77;;;0.70;;
44254;SDS011;29933;47.226;15.734;2022-11-20T15:18:21;1.88;;;0.80;;
44254;SDS011;29933;47.226;15.734;2022-11-20T15:20:56;0.50;;;0.43;;
44254;SDS011;29933;47.226;15.734;2022-11-20T15:23:27;0.70;;;0.50;;
44254;SDS011;29933;47.226;15.734;2022-11-20T15:25:54;1.98;;;1.33;;
44254;SDS011;29933;47.226;15.734;2022-11-20T15:28:29;2.22;;;1.17;;
44254;SDS011;29933;47.226;15.734;2022-11-20T15:31:02;1.20;;;0.60;;
44254;SDS011;29933;47.226;15.734;2022-11-20T15:33:29;1.55;;;1.00;;
44254;SDS011;29933;47.226;15.734;2022-11-20T15:35:56;2.20;;;1.75;;
44254;SDS011;29933;47.226;15.734;2022-11-20T15:38:22;6.05;;;1.40;;
44254;SDS011;29933;47.226;15.734;2022-11-20T15:40:49;2.17;;;1.13;;
44254;SDS011;29933;47.226;15.734;2022-11-20T15:43:15;0.95;;;0.90;;
44254;SDS011;29933;47.226;15.734;2022-11-20T15:45:41;0.85;;;0.80;;
44254;SDS011;29933;47.226;15.734;2022-11-20T15:48:30;2.38;;;1.17;;
44254;SDS011;29933;47.226;15.734;2022-11-20T15:51:30;0.93;;;0.60;;
44254;SDS011;29933;47.226;15.734;2022-11-20T15:54:12;1.38;;;0.98;;
44254;SDS011;29933;47.226;15.734;2022-11-20T15:59:08;1.08;;;0.93;;
44254;SDS011;29933;47.226;15.734;2022-11-20T16:01:34;1.63;;;0.95;;
44254;SDS011;29933;47.226;15.734;2022-11-20T16:04:00;1.48;;;1.20;;
44254;SDS011;29933;47.226;15.734;2022-11-20T16:06:26;1.10;;;1.00;;
44254;SDS011;29933;47.226;15.734;2022-11-20T16:08:52;1.05;;;0.90;;
44254;SDS011;29933;47.226;15.734;2022-11-20T16:11:18;2.25;;;1.77;;
44254;SDS011;29933;47.226;15.734;2022-11-20T16:13:44;1.25;;;0.98;;
44254;SDS011;29933;47.226;15.734;2022-11-20T16:16:29;2.70;;;0.95;;
44254;SDS011;29933;47.226;15.734;2022-11-20T16:19:01;1.73;;;0.82;;
44254;SDS011;29933;47.226;15.734;2022-11-20T16:21:27;1.95;;;1.20;;
44254;SDS011;29933;47.226;15.734;2022-11-20T16:24:00;1.45;;;1.30;;
44254;SDS011;29933;47.226;15.734;2022-11-20T16:26:31;1.25;;;0.90;;
44254;SDS011;29933;47.226;15.734;2022-11-20T16:28:58;1.73;;;0.93;;
44254;SDS011;29933;47.226;15.734;2022-11-20T16:31:26;1.98;;;1.20;;
44254;SDS011;29933;47.226;15.734;2022-11-20T16:33:52;9.48;;;3.13;;
44254;SDS011;29933;47.226;15.734;2022-11-20T16:36:21;1.50;;;0.90;;
44254;SDS011;29933;47.226;15.734;2022-11-20T16:38:53;1.00;;;0.82;;
44254;SDS011;29933;47.226;15.734;2022-11-20T16:41:20;1.15;;;0.85;;
44254;SDS011;29933;47.226;15.734;2022-11-20T16:43:48;1.50;;;0.77;;
44254;SDS011;29933;47.226;15.734;2022-11-20T16:46:17;0.75;;;0.60;;
44254;SDS011;29933;47.226;15.734;2022-11-20T16:48:46;1.25;;;1.15;;
44254;SDS011;29933;47.226;15.734;2022-11-20T16:51:22;1.05;;;0.95;;
44254;SDS011;29933;47.226;15.734;2022-11-20T16:53:50;1.98;;;1.10;;
44254;SDS011;29933;47.226;15.734;2022-11-20T16:56:17;3.17;;;1.52;;
44254;SDS011;29933;47.226;15.734;2022-11-20T16:58:45;1.42;;;0.90;;